Terminal Aerodrome Forecast
Issued by NWS Wakefield, VA

Home | Current Version | Previous Version | Text Only | Print | Product List | Glossary On
Versions: 1 2 3 4 5 6 7 8 9 10 11 12 13 14 15
895
FTUS41 KAKQ 071740
TAFORF
TAF
KORF 071740Z 0718/0818 03020G28KT P6SM SCT100 OVC200
     FM072200 02022G30KT P6SM SCT050 OVC100
     FM080000 02023G33KT P6SM -RA OVC040
     FM080500 36015G23KT P6SM BKN050
     FM081100 33013G19KT P6SM SCT025=

USA.gov is the U.S. government's official web portal to all federal, state and local government web resources and services.